createdAt,value
2023-03-03T00:00:57.611Z,11.03
2023-03-03T00:03:27.240Z,11.53
2023-03-03T00:05:54.709Z,11.00
2023-03-03T00:08:22.947Z,10.77
2023-03-03T00:10:50.448Z,9.97
2023-03-03T00:13:22.252Z,11.00
2023-03-03T00:15:49.451Z,10.53
2023-03-03T00:18:37.281Z,11.03
2023-03-03T00:21:25.583Z,11.20
2023-03-03T00:23:53.620Z,10.33
2023-03-03T00:26:36.333Z,10.80
2023-03-03T00:29:39.134Z,9.80
2023-03-03T00:32:27.478Z,10.47
2023-03-03T00:35:01.512Z,10.73
2023-03-03T00:37:34.956Z,10.23
2023-03-03T00:40:42.328Z,11.63
2023-03-03T00:43:36.024Z,11.53
2023-03-03T00:46:03.233Z,11.00
2023-03-03T00:48:35.827Z,11.13
2023-03-03T00:51:26.584Z,12.67
2023-03-03T00:53:53.836Z,11.00
2023-03-03T00:56:20.654Z,10.80
2023-03-03T00:58:48.109Z,10.80
2023-03-03T01:01:16.547Z,10.03
2023-03-03T01:03:43.759Z,11.00
2023-03-03T01:06:12.276Z,10.43
2023-03-03T01:08:39.333Z,12.03
2023-03-03T01:11:28.511Z,11.30
2023-03-03T01:13:56.437Z,11.17
2023-03-03T01:16:23.280Z,11.00
2023-03-03T01:18:50.033Z,12.13
2023-03-03T01:21:16.778Z,11.00
2023-03-03T01:23:43.525Z,10.90
2023-03-03T01:26:10.586Z,11.43
2023-03-03T01:28:37.332Z,11.93
2023-03-03T01:31:05.860Z,11.83
2023-03-03T01:33:34.214Z,11.33
2023-03-03T01:36:01.521Z,11.83
2023-03-03T01:38:28.975Z,11.93
2023-03-03T01:41:00.121Z,10.27
2023-03-03T01:43:32.397Z,10.93
2023-03-03T01:45:59.094Z,11.23
2023-03-03T01:48:34.578Z,10.97
2023-03-03T01:51:07.887Z,11.07
2023-03-03T01:53:43.706Z,10.60
2023-03-03T01:56:11.209Z,11.20
2023-03-03T01:58:45.292Z,11.93
2023-03-03T02:01:19.242Z,11.30
2023-03-03T02:03:46.112Z,12.13
2023-03-03T02:06:17.093Z,10.83
2023-03-03T02:08:59.465Z,11.23
2023-03-03T02:11:29.986Z,10.93
2023-03-03T02:13:56.709Z,10.47
2023-03-03T02:16:23.606Z,11.73
2023-03-03T02:18:50.435Z,12.37
2023-03-03T02:21:22.337Z,12.50
2023-03-03T02:24:18.270Z,11.03
2023-03-03T02:26:46.195Z,11.00
2023-03-03T02:29:13.105Z,11.90
2023-03-03T02:31:40.040Z,11.57
2023-03-03T02:34:07.204Z,10.13
2023-03-03T02:36:37.782Z,10.67
2023-03-03T02:39:20.514Z,10.23
2023-03-03T02:41:55.470Z,10.10
2023-03-03T02:44:26.083Z,10.30
2023-03-03T02:46:55.157Z,10.17
2023-03-03T02:49:28.824Z,10.23
2023-03-03T02:51:55.833Z,10.77
2023-03-03T02:54:26.398Z,11.00
2023-03-03T02:56:53.368Z,10.17
2023-03-03T02:59:20.150Z,10.50
2023-03-03T03:01:47.506Z,10.33
2023-03-03T03:04:21.793Z,10.47
2023-03-03T03:06:49.280Z,10.93
2023-03-03T03:09:18.237Z,10.03
2023-03-03T03:11:45.187Z,10.97
2023-03-03T03:14:13.916Z,10.90
2023-03-03T03:16:41.498Z,10.67
2023-03-03T03:19:08.726Z,10.90
2023-03-03T03:21:35.546Z,11.20
2023-03-03T03:24:02.305Z,11.07
2023-03-03T03:26:29.121Z,11.30
2023-03-03T03:28:55.906Z,11.23
2023-03-03T03:31:22.689Z,11.40
2023-03-03T03:33:49.556Z,11.43
2023-03-03T03:36:17.380Z,11.07
2023-03-03T03:38:44.275Z,11.60
2023-03-03T03:41:13.616Z,11.40
2023-03-03T03:43:41.005Z,11.27
2023-03-03T03:46:13.519Z,11.17
2023-03-03T03:48:40.322Z,10.87
2023-03-03T03:51:07.056Z,12.07
2023-03-03T03:53:33.779Z,11.43
2023-03-03T03:56:00.498Z,10.90
2023-03-03T03:58:27.302Z,11.77
2023-03-03T04:00:54.070Z,10.93
2023-03-03T04:03:21.007Z,12.20
2023-03-03T04:05:47.792Z,10.77
2023-03-03T04:08:14.527Z,11.03
2023-03-03T04:10:41.246Z,11.80
2023-03-03T04:13:07.990Z,11.63
2023-03-03T04:15:35.032Z,11.50
2023-03-03T04:18:03.626Z,11.43
2023-03-03T04:20:30.386Z,11.30
2023-03-03T04:22:57.215Z,11.17
2023-03-03T04:25:24.025Z,11.00
2023-03-03T04:27:52.743Z,11.73
2023-03-03T04:30:19.816Z,11.07
2023-03-03T04:32:47.425Z,12.07
2023-03-03T04:35:14.168Z,12.53
2023-03-03T04:37:40.911Z,11.90
2023-03-03T04:40:09.409Z,11.20
2023-03-03T04:42:36.755Z,11.33
2023-03-03T04:45:05.600Z,11.07
2023-03-03T04:47:32.763Z,11.30
2023-03-03T04:50:00.733Z,11.60
2023-03-03T04:52:28.196Z,11.27
2023-03-03T04:54:55.387Z,12.13
2023-03-03T04:57:22.700Z,11.27
2023-03-03T04:59:49.405Z,11.30
2023-03-03T05:02:16.786Z,11.53
2023-03-03T05:04:43.679Z,12.00
2023-03-03T05:07:10.798Z,11.43
2023-03-03T05:09:38.036Z,11.10
2023-03-03T05:12:05.297Z,12.30
2023-03-03T05:14:32.290Z,10.27
2023-03-03T05:16:59.027Z,10.67
2023-03-03T05:19:26.322Z,11.33
2023-03-03T05:21:53.043Z,11.43
2023-03-03T05:24:19.775Z,11.37
2023-03-03T05:26:46.574Z,11.90
2023-03-03T05:29:13.299Z,12.20
2023-03-03T05:31:40.060Z,12.07
2023-03-03T05:34:06.818Z,10.40
2023-03-03T05:36:33.758Z,11.97
2023-03-03T05:39:00.476Z,11.30
2023-03-03T05:41:27.244Z,10.67
2023-03-03T05:43:54.548Z,12.00
2023-03-03T05:46:21.349Z,12.27
2023-03-03T05:48:48.128Z,11.77
2023-03-03T05:51:14.931Z,11.03
2023-03-03T05:53:42.409Z,11.33
2023-03-03T05:56:09.192Z,11.13
2023-03-03T05:58:36.214Z,11.90
2023-03-03T06:01:03.224Z,11.97
2023-03-03T06:03:30.032Z,10.83
2023-03-03T06:05:56.761Z,10.90
2023-03-03T06:08:23.677Z,11.27
2023-03-03T06:10:50.476Z,12.27
2023-03-03T06:13:17.240Z,12.60
2023-03-03T06:15:44.026Z,12.23
2023-03-03T06:18:11.041Z,10.33
2023-03-03T06:20:38.754Z,10.97
2023-03-03T06:23:05.922Z,10.77
2023-03-03T06:25:35.531Z,12.57
2023-03-03T06:28:03.807Z,12.63
2023-03-03T06:30:30.685Z,11.33
2023-03-03T06:33:00.187Z,12.23
2023-03-03T06:35:27.340Z,11.83
2023-03-03T06:37:54.271Z,11.57
2023-03-03T06:40:21.066Z,12.60
2023-03-03T06:42:47.790Z,11.50
2023-03-03T06:45:14.757Z,11.80
2023-03-03T06:47:42.131Z,12.17
2023-03-03T06:50:12.309Z,12.43
2023-03-03T06:52:39.211Z,12.10
2023-03-03T06:55:35.440Z,12.53
2023-03-03T06:58:02.968Z,11.50
2023-03-03T07:00:31.308Z,12.00
2023-03-03T07:03:05.895Z,13.03
2023-03-03T07:05:34.290Z,13.27
2023-03-03T07:08:01.028Z,13.37
2023-03-03T07:10:30.874Z,13.10
2023-03-03T07:13:19.258Z,14.00
2023-03-03T07:15:48.781Z,13.13
2023-03-03T07:18:40.686Z,13.33
2023-03-03T07:21:17.792Z,12.80
2023-03-03T07:23:47.057Z,12.70
2023-03-03T07:26:35.442Z,12.57
2023-03-03T07:29:22.137Z,13.70
2023-03-03T07:31:50.877Z,12.57
2023-03-03T07:34:47.568Z,11.73
2023-03-03T07:37:25.432Z,12.03
2023-03-03T07:39:52.225Z,11.63
2023-03-03T07:42:39.868Z,11.63
2023-03-03T07:45:32.335Z,11.90
2023-03-03T07:48:30.425Z,10.97
2023-03-03T07:51:01.495Z,10.60
2023-03-03T07:53:34.749Z,10.73
2023-03-03T07:56:01.900Z,12.60
2023-03-03T07:58:39.284Z,13.13
2023-03-03T08:01:43.547Z,12.70
2023-03-03T08:04:18.632Z,13.30
2023-03-03T08:06:51.847Z,12.47
2023-03-03T08:09:18.464Z,12.60
2023-03-03T08:12:01.455Z,12.73
2023-03-03T08:14:34.580Z,12.53
2023-03-03T08:17:02.102Z,13.40
2023-03-03T08:19:31.081Z,14.27
2023-03-03T08:22:12.394Z,13.57
2023-03-03T08:24:39.132Z,15.00
2023-03-03T08:27:05.859Z,16.30
2023-03-03T08:29:32.578Z,16.45
2023-03-03T08:31:59.425Z,14.10
2023-03-03T08:34:26.297Z,13.97
2023-03-03T08:36:53.183Z,14.97
2023-03-03T08:39:20.073Z,14.03
2023-03-03T08:41:47.747Z,14.10
2023-03-03T08:44:14.528Z,16.37
2023-03-03T08:46:41.334Z,14.33
2023-03-03T08:49:08.074Z,14.70
2023-03-03T08:51:34.945Z,14.87
2023-03-03T08:54:01.784Z,15.97
2023-03-03T08:56:28.617Z,13.93
2023-03-03T08:59:03.294Z,15.80
2023-03-03T09:01:32.268Z,15.60
2023-03-03T09:03:59.994Z,16.07
2023-03-03T09:06:26.840Z,16.40
2023-03-03T09:08:54.829Z,16.00
2023-03-03T09:11:28.539Z,15.93
2023-03-03T09:14:17.993Z,16.13
2023-03-03T09:16:53.364Z,14.90
2023-03-03T09:19:33.709Z,15.93
2023-03-03T09:22:26.129Z,16.43
2023-03-03T09:25:00.032Z,16.20
2023-03-03T09:27:34.525Z,16.40
2023-03-03T09:30:24.309Z,15.23
2023-03-03T09:32:51.077Z,16.03
2023-03-03T09:35:38.664Z,13.83
2023-03-03T09:38:47.180Z,14.47
2023-03-03T09:41:50.602Z,16.70
2023-03-03T09:44:38.088Z,16.23
2023-03-03T09:47:33.258Z,16.60
2023-03-03T09:50:30.023Z,14.37
2023-03-03T09:53:39.477Z,15.53
2023-03-03T09:56:22.185Z,14.27
2023-03-03T09:59:10.253Z,14.50
2023-03-03T10:02:36.867Z,14.43
2023-03-03T10:05:19.272Z,15.67
2023-03-03T10:08:31.788Z,16.13
2023-03-03T10:11:03.846Z,16.00
2023-03-03T10:13:52.469Z,14.47
2023-03-03T10:16:34.084Z,13.57
2023-03-03T10:19:35.884Z,15.80
2023-03-03T10:22:17.540Z,14.60
2023-03-03T10:25:05.910Z,13.80
2023-03-03T10:27:40.837Z,13.73
2023-03-03T10:30:41.207Z,13.63
2023-03-03T10:34:00.360Z,13.23
2023-03-03T10:36:53.715Z,14.37
2023-03-03T10:40:08.709Z,13.57
2023-03-03T10:43:02.342Z,12.77
2023-03-03T10:45:39.513Z,12.43
2023-03-03T10:48:41.508Z,14.05
2023-03-03T10:51:58.853Z,11.67
2023-03-03T10:55:01.350Z,15.70
2023-03-03T10:58:07.926Z,14.37
2023-03-03T11:00:48.621Z,13.17
2023-03-03T11:03:33.371Z,13.90
2023-03-03T11:06:06.091Z,11.67
2023-03-03T11:08:48.541Z,14.17
2023-03-03T11:11:25.413Z,13.67
2023-03-03T11:14:23.044Z,15.60
2023-03-03T11:17:26.278Z,14.00
2023-03-03T11:20:02.197Z,14.33
2023-03-03T11:23:11.387Z,15.43
2023-03-03T11:26:11.466Z,13.87
2023-03-03T11:28:56.460Z,13.80
2023-03-03T11:32:07.463Z,13.17
2023-03-03T11:35:06.784Z,12.47
2023-03-03T11:37:50.561Z,12.57
2023-03-03T11:40:31.778Z,12.67
2023-03-03T11:43:35.337Z,12.10
2023-03-03T11:46:36.339Z,11.67
2023-03-03T11:49:22.420Z,13.13
2023-03-03T11:52:34.612Z,14.03
2023-03-03T11:55:18.874Z,12.67
2023-03-03T11:58:00.902Z,12.53
2023-03-03T12:00:47.155Z,12.20
2023-03-03T12:03:53.353Z,13.50
2023-03-03T12:07:18.515Z,12.30
2023-03-03T12:10:01.882Z,11.60
2023-03-03T12:12:56.389Z,13.20
2023-03-03T12:15:55.064Z,12.57
2023-03-03T12:19:03.396Z,11.00
2023-03-03T12:21:56.221Z,12.47
2023-03-03T12:24:43.206Z,11.97
2023-03-03T12:27:34.180Z,11.93
2023-03-03T12:30:31.980Z,11.00
2023-03-03T12:33:36.244Z,12.13
2023-03-03T12:36:05.467Z,11.30
2023-03-03T12:39:25.285Z,11.23
2023-03-03T12:42:40.645Z,11.33
2023-03-03T12:46:06.623Z,11.00
2023-03-03T12:48:46.020Z,10.47
2023-03-03T12:51:55.267Z,11.03
2023-03-03T12:54:58.765Z,10.47
2023-03-03T12:57:55.336Z,10.77
2023-03-03T13:00:39.057Z,10.83
2023-03-03T13:03:15.221Z,11.20
2023-03-03T13:06:14.894Z,10.33
2023-03-03T13:09:25.608Z,10.20
2023-03-03T13:12:27.994Z,9.83
2023-03-03T13:15:05.128Z,11.83
2023-03-03T13:18:28.941Z,10.90
2023-03-03T13:21:39.806Z,9.53
2023-03-03T13:24:50.015Z,10.30
2023-03-03T13:27:20.981Z,11.47
2023-03-03T13:30:14.421Z,10.97
2023-03-03T13:32:59.407Z,11.37
2023-03-03T13:35:49.882Z,10.60
2023-03-03T13:38:25.240Z,11.37
2023-03-03T13:41:09.758Z,11.47
2023-03-03T13:43:58.348Z,10.50
2023-03-03T13:46:43.268Z,9.47
2023-03-03T13:49:32.043Z,10.97
2023-03-03T13:52:19.058Z,9.93
2023-03-03T13:55:05.030Z,10.00
2023-03-03T13:57:48.715Z,10.87
2023-03-03T14:00:33.730Z,9.27
2023-03-03T14:03:37.312Z,9.57
2023-03-03T14:06:19.449Z,8.60
2023-03-03T14:09:40.180Z,10.93
2023-03-03T14:12:45.627Z,9.23
2023-03-03T14:15:38.499Z,9.20
2023-03-03T14:18:24.623Z,8.73
2023-03-03T14:21:00.651Z,9.83
2023-03-03T14:24:15.173Z,8.03
2023-03-03T14:26:57.762Z,9.10
2023-03-03T14:29:27.510Z,7.23
2023-03-03T14:32:03.041Z,8.32
2023-03-03T14:34:41.663Z,7.27
2023-03-03T14:37:42.114Z,6.90
2023-03-03T14:40:22.424Z,6.90
2023-03-03T14:42:52.044Z,6.37
2023-03-03T14:45:31.023Z,6.67
2023-03-03T14:48:00.763Z,6.83
2023-03-03T14:50:51.259Z,6.47
2023-03-03T14:53:17.916Z,6.97
2023-03-03T14:55:49.341Z,6.53
2023-03-03T14:58:39.946Z,7.47
2023-03-03T15:01:16.610Z,7.27
2023-03-03T15:04:09.851Z,7.20
2023-03-03T15:06:44.718Z,7.17
2023-03-03T15:09:35.878Z,7.00
2023-03-03T15:12:22.690Z,6.00
2023-03-03T15:15:19.489Z,6.77
2023-03-03T15:18:04.108Z,6.80
2023-03-03T15:21:01.921Z,6.83
2023-03-03T15:24:00.534Z,6.93
2023-03-03T15:26:59.963Z,6.53
2023-03-03T15:30:04.304Z,7.27
2023-03-03T15:32:46.078Z,7.90
2023-03-03T15:35:37.496Z,6.83
2023-03-03T15:38:23.776Z,7.37
2023-03-03T15:41:14.411Z,6.53
2023-03-03T15:44:08.648Z,6.50
2023-03-03T15:47:43.537Z,7.23
2023-03-03T15:50:23.834Z,6.27
2023-03-03T15:53:38.561Z,6.17
2023-03-03T15:56:20.435Z,6.53
2023-03-03T15:59:14.373Z,7.07
2023-03-03T16:02:16.092Z,6.63
2023-03-03T16:05:01.359Z,6.00
2023-03-03T16:08:13.881Z,6.10
2023-03-03T16:11:22.832Z,5.77
2023-03-03T16:14:45.878Z,5.97
2023-03-03T16:17:27.559Z,6.50
2023-03-03T16:20:22.565Z,6.40
2023-03-03T16:23:28.985Z,6.60
2023-03-03T16:26:04.990Z,6.20
2023-03-03T16:28:50.783Z,6.87
2023-03-03T16:31:56.966Z,6.87
2023-03-03T16:34:47.689Z,6.43
2023-03-03T16:37:32.683Z,6.80
2023-03-03T16:40:21.789Z,6.67
2023-03-03T16:43:10.725Z,6.93
2023-03-03T16:45:40.235Z,6.87
2023-03-03T16:48:27.527Z,7.07
2023-03-03T16:51:33.298Z,7.10
2023-03-03T16:54:15.274Z,6.90
2023-03-03T16:57:06.191Z,7.70
2023-03-03T17:00:23.882Z,7.10
2023-03-03T17:03:14.914Z,6.90
2023-03-03T17:06:03.731Z,5.77
2023-03-03T17:08:51.029Z,6.57
2023-03-03T17:11:53.407Z,6.57
2023-03-03T17:15:24.493Z,6.93
2023-03-03T17:18:18.470Z,7.50
2023-03-03T17:20:58.821Z,6.57
2023-03-03T17:23:49.013Z,6.23
2023-03-03T17:26:34.689Z,6.53
2023-03-03T17:29:29.825Z,6.23
2023-03-03T17:33:05.988Z,7.93
2023-03-03T17:35:45.130Z,8.80
2023-03-03T17:38:42.126Z,7.83
2023-03-03T17:41:25.938Z,7.97
2023-03-03T17:44:11.684Z,6.87
2023-03-03T17:46:56.602Z,6.37
2023-03-03T17:49:40.978Z,6.93
2023-03-03T17:52:24.576Z,6.17
2023-03-03T17:55:49.788Z,6.10
2023-03-03T17:59:11.769Z,6.37
2023-03-03T18:02:33.969Z,5.77
2023-03-03T18:05:28.015Z,6.07
2023-03-03T18:08:20.515Z,6.10
2023-03-03T18:11:12.251Z,6.00
2023-03-03T18:14:12.371Z,5.30
2023-03-03T18:17:16.960Z,6.20
2023-03-03T18:20:08.306Z,5.93
2023-03-03T18:22:51.015Z,5.53
2023-03-03T18:25:22.696Z,5.90
2023-03-03T18:28:01.304Z,6.13
2023-03-03T18:30:51.809Z,5.13
2023-03-03T18:33:35.016Z,5.50
2023-03-03T18:36:37.422Z,5.90
2023-03-03T18:39:06.793Z,5.70
2023-03-03T18:42:30.278Z,6.10
2023-03-03T18:44:58.247Z,5.43
2023-03-03T18:47:57.012Z,5.53
2023-03-03T18:50:39.816Z,5.30
2023-03-03T18:53:28.494Z,6.30
2023-03-03T18:55:59.188Z,5.27
2023-03-03T18:58:38.334Z,5.57
2023-03-03T19:01:31.668Z,5.30
2023-03-03T19:04:19.900Z,4.67
2023-03-03T19:06:49.761Z,6.30
2023-03-03T19:09:50.444Z,5.30
2023-03-03T19:12:17.805Z,5.03
2023-03-03T19:14:48.974Z,5.17
2023-03-03T19:17:18.443Z,5.50
2023-03-03T19:20:18.063Z,5.50
2023-03-03T19:23:02.809Z,5.47
2023-03-03T19:25:32.553Z,5.07
2023-03-03T19:28:29.518Z,5.33
2023-03-03T19:31:24.602Z,5.73
2023-03-03T19:34:03.103Z,6.07
2023-03-03T19:36:44.700Z,6.20
2023-03-03T19:39:23.277Z,6.00
2023-03-03T19:41:55.754Z,7.20
2023-03-03T19:45:08.719Z,8.07
2023-03-03T19:48:34.222Z,7.10
2023-03-03T19:51:35.913Z,6.77
2023-03-03T19:54:43.936Z,5.93
2023-03-03T19:57:31.592Z,5.60
2023-03-03T20:00:21.232Z,5.80
2023-03-03T20:03:47.375Z,5.03
2023-03-03T20:07:04.036Z,5.83
2023-03-03T20:10:09.627Z,5.77
2023-03-03T20:12:53.440Z,6.13
2023-03-03T20:15:31.495Z,5.40
2023-03-03T20:24:50.078Z,5.73
2023-03-03T20:27:21.914Z,6.07
2023-03-03T20:30:13.051Z,6.20
2023-03-03T20:33:20.024Z,6.13
2023-03-03T20:36:16.582Z,5.83
2023-03-03T20:39:08.663Z,5.57
2023-03-03T20:42:33.044Z,6.27
2023-03-03T20:45:17.966Z,7.13
2023-03-03T20:48:07.095Z,6.20
2023-03-03T20:51:10.908Z,7.73
2023-03-03T20:54:17.217Z,7.23
2023-03-03T20:56:49.975Z,6.60
2023-03-03T20:59:39.738Z,7.23
2023-03-03T21:02:46.312Z,6.83
2023-03-03T21:05:22.629Z,7.10
2023-03-03T21:08:01.417Z,7.23
2023-03-03T21:10:35.558Z,6.80
2023-03-03T21:13:44.036Z,6.97
2023-03-03T21:16:29.895Z,6.93
2023-03-03T21:19:11.974Z,5.90
2023-03-03T21:21:47.675Z,7.10
2023-03-03T21:24:19.490Z,6.87
2023-03-03T21:26:52.063Z,6.40
2023-03-03T21:29:39.087Z,7.00
2023-03-03T21:32:10.605Z,6.70
2023-03-03T21:34:40.851Z,6.90
2023-03-03T21:37:17.255Z,7.33
2023-03-03T21:39:44.721Z,7.27
2023-03-03T21:42:19.110Z,7.27
2023-03-03T21:44:50.691Z,6.60
2023-03-03T21:47:23.359Z,7.27
2023-03-03T21:49:52.246Z,8.00
2023-03-03T21:52:21.932Z,6.93
2023-03-03T21:54:51.368Z,7.13
2023-03-03T21:57:18.510Z,8.03
2023-03-03T21:59:45.328Z,8.57
2023-03-03T22:02:12.493Z,7.93
2023-03-03T22:04:39.425Z,8.40
2023-03-03T22:07:06.449Z,7.70
2023-03-03T22:09:34.141Z,8.10
2023-03-03T22:12:01.263Z,9.10
2023-03-03T22:14:30.903Z,8.30
2023-03-03T22:16:57.616Z,7.57
2023-03-03T22:19:24.944Z,7.87
2023-03-03T22:21:51.700Z,8.70
2023-03-03T22:24:18.926Z,7.33
2023-03-03T22:26:45.703Z,8.73
2023-03-03T22:29:12.743Z,7.20
2023-03-03T22:31:39.675Z,7.30
2023-03-03T22:34:06.625Z,7.87
2023-03-03T22:36:33.564Z,8.20
2023-03-03T22:39:00.880Z,9.10
2023-03-03T22:41:27.639Z,8.47
2023-03-03T22:43:54.392Z,8.43
2023-03-03T22:46:21.176Z,8.40
2023-03-03T22:48:47.920Z,8.43
2023-03-03T22:51:14.945Z,8.63
2023-03-03T22:53:43.965Z,9.37
2023-03-03T22:56:10.676Z,9.00
2023-03-03T22:58:37.426Z,7.70
2023-03-03T23:01:05.055Z,7.47
2023-03-03T23:03:32.631Z,8.63
2023-03-03T23:05:59.708Z,8.23
2023-03-03T23:08:27.415Z,8.33
2023-03-03T23:10:54.116Z,8.33
2023-03-03T23:13:21.169Z,7.90
2023-03-03T23:15:48.010Z,8.40
2023-03-03T23:18:14.807Z,8.37
2023-03-03T23:20:45.589Z,7.87
2023-03-03T23:23:12.596Z,7.60
2023-03-03T23:25:39.396Z,7.90
2023-03-03T23:28:06.394Z,8.77
2023-03-03T23:30:33.284Z,8.77
2023-03-03T23:33:00.005Z,8.87
2023-03-03T23:35:26.814Z,8.20
2023-03-03T23:37:53.536Z,8.70
2023-03-03T23:40:20.376Z,9.20
2023-03-03T23:42:47.126Z,7.70
2023-03-03T23:45:14.136Z,8.37
2023-03-03T23:47:41.474Z,9.33
2023-03-03T23:50:11.573Z,8.53
2023-03-03T23:52:38.325Z,8.97
2023-03-03T23:55:06.536Z,8.07
2023-03-03T23:57:33.479Z,8.67
